Time;durP1;ratioP1;P1;durP2;ratioP2;P2;SDS_P1;SDS_P2;PMS_P1;PMS_P2;Temp;Humidity;BMP_temperature;BMP_pressure;BME280_temperature;BME280_humidity;BME280_pressure;Samples;Min_cycle;Max_cycle;Signal;HPM_P1;HPM_P2
2021/04/27 00:02:44;;;;;;;;;;;;;;;;;;;;;
2021/04/27 00:05:43;;;;;;;27.75;16.05;;;;;;;6.10;88.08;92063.44;5059622;28;20104;-91
2021/04/27 00:08:39;;;;;;;24.73;15.15;;;;;;;5.93;87.25;92034.41;5003706;28;20049;-90
2021/04/27 00:11:18;;;;;;;;;;;;;;;;;;;;;
2021/04/27 00:13:54;;;;;;;18.65;13.25;;;;;;;6.14;88.41;92072.25;5037863;28;20409;-90
2021/04/27 00:16:44;;;;;;;;;;;;;;;;;;;;;
2021/04/27 00:19:34;;;;;;;21.90;14.40;;;;;;;5.81;88.67;92024.34;5026680;28;20459;-91
2021/04/27 00:22:10;;;;;;;28.02;14.00;;;;;;;6.20;88.87;92062.63;5027195;28;20092;-91
2021/04/27 00:25:01;;;;;;;;;;;;;;;;;;;;;
2021/04/27 00:27:47;;;;;;;;;;;;;;;;;;;;;
2021/04/27 00:30:32;;;;;;;23.00;14.63;;;;;;;6.01;88.59;92021.66;5045334;28;20554;-90
2021/04/27 00:33:11;;;;;;;21.52;13.18;;;;;;;6.00;88.46;92024.53;5037320;28;20052;-90
2021/04/27 00:36:22;;;;;;;17.25;11.98;;;;;;;5.92;87.23;92012.84;5049060;28;20056;-92
2021/04/27 00:39:06;;;;;;;20.02;12.70;;;;;;;5.92;87.19;92007.66;5062610;28;20060;-91
2021/04/27 00:42:16;;;;;;;19.80;13.20;;;;;;;5.87;87.89;91996.50;5043812;28;20032;-92
2021/04/27 00:45:11;;;;;;;22.20;13.07;;;;;;;5.85;87.22;91986.38;5062824;28;20045;-91
2021/04/27 00:51:10;;;;;;;20.75;13.30;;;;;;;5.98;87.32;92005.81;5049057;28;20049;-91
2021/04/27 00:54:14;;;;;;;22.92;13.73;;;;;;;5.89;87.23;91979.59;5043435;28;20057;-91
2021/04/27 00:56:57;;;;;;;20.73;13.80;;;;;;;5.89;87.32;91977.00;5044592;28;20033;-93
2021/04/27 00:59:52;;;;;;;18.90;12.88;;;;;;;5.90;87.49;91977.78;5045394;28;20044;-91
2021/04/27 01:03:12;;;;;;;20.83;13.73;;;;;;;5.87;87.79;91958.31;5029046;28;20076;-92
2021/04/27 01:06:17;;;;;;;;;;;;;;;;;;;;;
2021/04/27 01:09:06;;;;;;;21.55;13.30;;;;;;;6.24;87.41;92009.06;5015526;28;20045;-91
2021/04/27 01:12:06;;;;;;;21.35;13.68;;;;;;;6.20;86.80;92006.22;5041642;28;20049;-92
2021/04/27 01:15:20;;;;;;;;;;;;;;;;;;;;;
2021/04/27 01:18:36;;;;;;;;;;;;;;;;;;;;;
2021/04/27 01:21:28;;;;;;;;;;;;;;;6.18;87.24;91999.72;5025440;28;20049;-91
2021/04/27 01:24:31;;;;;;;24.40;14.35;;;;;;;6.18;87.15;91989.34;5025828;28;20373;-91
2021/04/27 01:27:37;;;;;;;24.90;14.55;;;;;;;5.79;86.88;91936.28;5019576;28;20041;-91
2021/04/27 01:30:42;;;;;;;;;;;;;;;;;;;;;
2021/04/27 01:33:57;;;;;;;26.05;14.13;;;;;;;5.81;86.48;91944.59;5004261;28;20046;-91
2021/04/27 01:37:03;;;;;;;24.92;15.18;;;;;;;5.89;86.69;91951.03;5008904;28;20341;-91
2021/04/27 01:39:52;;;;;;;24.05;15.90;;;;;;;6.14;86.38;91989.09;5038811;28;20047;-90
2021/04/27 01:42:57;;;;;;;24.52;15.13;;;;;;;6.07;86.74;91969.66;5053992;28;20490;-90
2021/04/27 01:49:00;;;;;;;;;;;;;;;;;;;;;
2021/04/27 01:51:34;;;;;;;24.30;15.50;;;;;;;6.07;86.38;91970.44;5016129;28;20380;-91
2021/04/27 01:55:04;;;;;;;26.55;16.05;;;;;;;5.84;86.14;91922.50;5030497;28;20041;-89
2021/04/27 01:58:05;;;;;;;25.48;16.27;;;;;;;5.97;85.77;91952.31;5018623;28;20043;-91
2021/04/27 02:00:50;;;;;;;27.45;15.60;;;;;;;5.77;85.25;91916.84;4999651;28;20676;-91
2021/04/27 02:03:43;;;;;;;27.50;15.88;;;;;;;5.90;85.22;91925.81;5003440;28;20053;-90
2021/04/27 02:07:15;;;;;;;29.55;17.00;;;;;;;6.13;85.96;91973.78;5027534;28;20040;-90
2021/04/27 02:10:06;;;;;;;27.45;17.33;;;;;;;6.05;84.76;91955.09;5036938;28;20051;-90
2021/04/27 02:12:55;;;;;;;;;;;;;;;;;;;;;
2021/04/27 02:15:37;;;;;;;27.83;18.23;;;;;;;5.74;84.31;91905.16;5021804;28;20053;-90
2021/04/27 02:18:43;;;;;;;27.73;18.08;;;;;;;5.94;84.75;91938.03;5054031;28;20879;-90
2021/04/27 02:21:32;;;;;;;29.08;17.98;;;;;;;5.60;84.42;91904.97;5038673;28;20049;-91
2021/04/27 02:24:40;;;;;;;33.65;18.27;;;;;;;5.56;83.63;91896.19;5019107;28;20048;-90
2021/04/27 02:30:40;;;;;;;33.60;18.55;;;;;;;5.73;85.67;91915.81;5023456;28;20032;-90
2021/04/27 02:33:36;;;;;;;31.80;19.30;;;;;;;5.84;86.58;91922.50;5038709;28;20052;-90
2021/04/27 02:36:29;;;;;;;30.98;19.48;;;;;;;5.88;85.55;91928.72;5020977;28;20048;-90
2021/04/27 02:39:31;;;;;;;34.40;18.92;;;;;;;5.84;86.48;91919.91;5009898;28;20042;-90
2021/04/27 02:42:17;;;;;;;;;;;;;;;;;;;;;
2021/04/27 02:45:30;;;;;;;35.72;20.70;;;;;;;5.80;86.58;91917.06;5040650;28;20139;-90
2021/04/27 02:48:53;;;;;;;30.88;19.92;;;;;;;5.53;85.55;91865.56;5041142;28;20111;-90
2021/04/27 02:51:33;;;;;;;36.33;20.60;;;;;;;5.60;86.11;91875.66;5007761;28;20049;-90
2021/04/27 02:54:35;;;;;;;;;;;;;;;5.90;84.71;91921.44;4995343;28;20490;-91
2021/04/27 02:57:50;;;;;;;;;;;;;;;;;;;;;
2021/04/27 03:00:32;;;;;;;;;;;;;;;;;;;;;
2021/04/27 03:03:23;;;;;;;;;;;;;;;;;;;;;
2021/04/27 03:06:36;;;;;;;33.00;20.65;;;;;;;5.59;86.50;91856.69;5039281;28;20128;-90
2021/04/27 03:09:44;;;;;;;;;;;;;;;;;;;;;
2021/04/27 03:12:36;;;;;;;35.60;20.60;;;;;;;5.68;86.13;91869.13;5021902;28;20110;-90
2021/04/27 03:15:55;;;;;;;35.55;20.42;;;;;;;5.99;86.75;91900.84;5022632;28;20052;-89
2021/04/27 03:18:32;;;;;;;38.35;22.27;;;;;;;5.55;86.45;91836.75;5017356;28;20060;-89
2021/04/27 03:21:31;;;;;;;37.90;21.75;;;;;;;5.68;86.12;91858.72;5017551;28;20045;-90
2021/04/27 03:24:27;;;;;;;;;;;;;;;;;;;;;
2021/04/27 03:27:13;;;;;;;34.47;20.83;;;;;;;5.59;86.41;91833.34;5017811;28;20572;-90
2021/04/27 03:30:17;;;;;;;35.63;22.00;;;;;;;5.55;86.12;91829.72;4995194;28;20136;-90
2021/04/27 03:32:51;;;;;;;39.35;21.90;;;;;;;5.62;85.59;91843.16;5019580;28;20049;-90
2021/04/27 03:36:28;;;;;;;39.53;22.27;;;;;;;5.56;86.10;91839.06;5013736;28;20041;-90
2021/04/27 03:39:40;;;;;;;38.85;22.77;;;;;;;5.72;86.63;91868.31;5031082;28;20045;-90
2021/04/27 03:42:39;;;;;;;40.45;21.90;;;;;;;5.52;86.37;91832.88;5016955;28;20386;-90
2021/04/27 03:45:48;;;;;;;;;;;;;;;;;;;;;
2021/04/27 03:48:33;;;;;;;42.67;22.33;;;;;;;5.58;87.17;91841.38;5034556;28;20044;-91
2021/04/27 03:51:49;;;;;;;36.83;21.55;;;;;;;5.61;86.19;91846.81;5035083;28;20148;-90
2021/04/27 03:55:03;;;;;;;40.35;22.45;;;;;;;5.44;86.43;91820.44;5040899;28;20041;-90
2021/04/27 03:57:56;;;;;;;35.25;20.02;;;;;;;5.79;85.67;91873.19;5022174;28;20115;-90
2021/04/27 04:00:25;;;;;;;36.60;21.55;;;;;;;5.45;85.87;91823.81;5023125;28;20049;-90
2021/04/27 04:03:17;;;;;;;35.40;21.88;;;;;;;5.53;86.02;91831.03;5005575;28;20044;-90
2021/04/27 04:06:34;;;;;;;;;;;;;;;;;;;;;
2021/04/27 04:09:32;;;;;;;35.05;21.63;;;;;;;5.53;86.19;91823.25;5056855;28;20037;-90
2021/04/27 04:13:22;;;;;;;39.83;22.23;;;;;;;5.56;86.79;91831.28;5035273;28;20057;-90
2021/04/27 04:20:22;;;;;;;34.08;20.40;;;;;;;5.86;85.57;91876.25;4977598;28;20052;-88
2021/04/27 04:30:57;;;;;;;37.03;20.02;;;;;;;5.59;85.12;91828.13;4933533;28;20106;-90
2021/04/27 04:34:39;;;;;;;;;;;;;;;;;;;;;
2021/04/27 04:38:15;;;;;;;;;;;;;;;;;;;;;
2021/04/27 04:42:04;;;;;;;;;;;;;;;;;;;;;
2021/04/27 04:55:32;;;;;;;31.15;20.25;;;;;;;5.97;85.09;91885.53;4997373;28;20064;-89
2021/04/27 04:59:05;;;;;;;36.80;20.80;;;;;;;5.62;84.68;91832.00;4995831;28;20148;-89
2021/04/27 05:06:15;;;;;;;;;;;;;;;5.98;83.92;91887.09;2;166688608;166688608;-90
2021/04/27 05:13:54;;;;;;;34.08;20.10;;;;;;;6.06;84.51;91893.53;4801139;29;20080;-89
2021/04/27 05:24:29;;;;;;;;;;;;;;;;;;;;;
2021/04/27 05:31:55;;;;;;;35.38;21.05;;;;;;;5.72;86.57;91850.13;4889331;29;20044;-89
2021/04/27 05:39:06;;;;;;;32.63;21.10;;;;;;;5.96;86.25;91878.78;4864427;29;20177;-89
2021/04/27 05:42:26;;;;;;;29.65;20.13;;;;;;;5.79;85.99;91844.63;4892531;29;20126;-91
2021/04/27 05:53:31;;;;;;;32.08;20.42;;;;;;;5.90;83.74;91832.31;5033691;28;20088;-90
2021/04/27 05:56:42;;;;;;;;;;;;;;;;;;;;;
2021/04/27 06:00:36;;;;;;;31.55;19.10;;;;;;;6.12;83.83;91853.44;5033515;28;20053;-90
2021/04/27 06:04:16;;;;;;;;;;;;;;;;;;;;;
2021/04/27 06:22:46;;;;;;;;;;;;;;;;;;;;;
2021/04/27 06:29:37;;;;;;;;;;;;;;;;;;;;;
2021/04/27 06:32:55;;;;;;;30.35;18.15;;;;;;;6.23;81.10;91820.34;5014637;28;20049;-90
2021/04/27 06:44:03;;;;;;;31.88;19.75;;;;;;;6.46;83.64;91830.00;4989228;28;20050;-90
2021/04/27 07:12:02;;;;;;;;;;;;;;;;;;;;;
2021/04/27 07:15:21;;;;;;;33.92;20.00;;;;;;;6.40;81.23;91832.94;5029127;28;20063;-90
2021/04/27 07:22:31;;;;;;;;;;;;;;;;;;;;;
2021/04/27 07:29:15;;;;;;;32.92;19.98;;;;;;;6.38;80.69;91822.81;5029439;28;20055;-90
2021/04/27 07:40:05;;;;;;;;;;;;;;;;;;;;;
2021/04/27 07:54:36;;;;;;;37.63;21.13;;;;;;;7.05;80.74;91876.69;4880724;29;20056;-90
2021/04/27 08:04:58;;;;;;;33.80;20.30;;;;;;;6.76;78.96;91827.34;4863185;29;20064;-91
2021/04/27 08:15:35;;;;;;;197.27;27.17;;;;;;;7.06;84.50;91886.03;4792682;29;20081;-89
2021/04/27 08:25:19;;;;;;;36.33;22.20;;;;;;;6.64;83.94;91877.13;4891919;29;20072;-90
2021/04/27 08:28:38;;;;;;;43.60;23.85;;;;;;;6.57;84.26;91889.69;4917943;29;20058;-89
2021/04/27 08:32:14;;;;;;;;;;;;;;;;;;;;;
2021/04/27 08:43:00;;;;;;;46.63;23.83;;;;;;;6.39;86.80;91860.72;5033422;28;20042;-90
2021/04/27 08:49:46;;;;;;;41.22;24.30;;;;;;;6.36;85.28;91845.69;5005758;28;20049;-90
2021/04/27 09:01:10;;;;;;;;;;;;;;;;;;;;;
2021/04/27 09:07:31;;;;;;;43.40;22.83;;;;;;;7.07;83.66;91898.03;4985440;28;20124;-90
2021/04/27 09:10:42;;;;;;;;;;;;;;;;;;;;;
2021/04/27 09:24:21;;;;;;;47.13;26.35;;;;;;;6.63;85.51;91847.75;4935927;29;20084;-90
2021/04/27 09:27:47;;;;;;;;;;;;;;;;;;;;;
2021/04/27 09:34:45;;;;;;;46.38;25.00;;;;;;;6.99;85.15;91916.84;5006714;28;20046;-90
2021/04/27 09:38:05;;;;;;;42.20;24.98;;;;;;;7.09;84.43;91914.09;5014170;28;20073;-90
2021/04/27 09:41:45;;;;;;;;;;;;;;;;;;;;;
2021/04/27 09:45:24;;;;;;;42.13;24.02;;;;;;;6.92;83.94;91908.59;5022819;28;20107;-90
2021/04/27 09:48:35;;;;;;;;;;;;;;;;;;;;;
2021/04/27 09:52:32;;;;;;;;;;;;;;;;;;;;;
2021/04/27 09:55:36;;;;;;;;;;;;;;;;;;;;;
2021/04/27 10:16:55;;;;;;;37.75;22.17;;;;;;;8.19;77.94;91866.22;4909178;29;20131;-90
2021/04/27 10:19:49;;;;;;;40.67;22.65;;;;;;;7.75;80.84;91846.59;4945665;28;20522;-90
2021/04/27 10:23:35;;;;;;;41.13;24.25;;;;;;;8.06;79.38;91885.97;4998647;28;20050;-90
2021/04/27 10:26:44;;;;;;;40.95;23.88;;;;;;;8.04;80.85;91888.88;4968638;28;20099;-91
2021/04/27 10:29:45;;;;;;;41.08;24.27;;;;;;;7.26;82.41;91853.78;5019426;28;20049;-90
2021/04/27 10:32:58;;;;;;;;;;;;;;;;;;;;;
2021/04/27 10:36:21;;;;;;;43.72;24.33;;;;;;;7.21;80.67;91839.00;4982594;28;20061;-91
2021/04/27 10:39:35;;;;;;;40.15;24.92;;;;;;;7.45;81.19;91838.94;4988788;28;20121;-90
2021/04/27 10:46:12;;;;;;;41.78;24.75;;;;;;;7.83;79.35;91895.44;5004073;28;20054;-90
2021/04/27 10:50:24;;;;;;;;;;;;;;;;;;;;;
2021/04/27 10:53:20;;;;;;;34.30;22.00;;;;;;;7.47;80.42;91831.59;5016217;28;20044;-90
2021/04/27 10:59:26;;;;;;;;;;;;;;;;;;;;;
2021/04/27 11:02:42;;;;;;;;;;;;;;;;;;;;;
2021/04/27 11:05:31;;;;;;;42.70;24.75;;;;;;;8.09;79.37;91883.59;4999361;28;20064;-91
2021/04/27 11:08:39;;;;;;;40.63;23.80;;;;;;;7.78;80.29;91883.28;4983865;28;20094;-90
2021/04/27 11:19:06;;;;;;;47.33;24.65;;;;;;;7.63;80.59;91824.38;4995227;28;20054;-90
2021/04/27 11:22:05;;;;;;;49.92;26.13;;;;;;;8.09;79.78;91872.41;5010940;28;20046;-91
2021/04/27 11:28:22;;;;;;;42.50;25.63;;;;;;;7.66;80.56;91831.59;4996472;28;20056;-90
2021/04/27 11:32:18;;;;;;;40.17;24.38;;;;;;;7.86;80.05;91827.91;4989371;28;20046;-91
2021/04/27 11:36:12;;;;;;;;;;;;;;;;;;;;;
2021/04/27 11:40:20;;;;;;;;;;;;;;;;;;;;;
2021/04/27 11:47:18;;;;;;;47.35;27.23;;;;;;;7.94;80.98;91821.28;4896958;29;20059;-92
2021/04/27 11:50:16;;;;;;;44.65;25.35;;;;;;;8.07;79.20;91836.19;4871298;29;20052;-91
2021/04/27 11:53:26;;;;;;;40.08;23.30;;;;;;;8.40;78.63;91869.25;4945991;28;20496;-92
2021/04/27 11:56:30;;;;;;;;;;;;;;;;;;;;;
2021/04/27 12:00:01;;;;;;;;;;;;;;;;;;;;;
2021/04/27 12:02:37;;;;;;;36.33;22.15;;;;;;;8.41;75.59;91819.47;5030158;28;20056;-90
2021/04/27 12:06:02;;;;;;;40.28;23.02;;;;;;;8.51;75.71;91819.28;4986744;28;20034;-92
2021/04/27 12:12:52;;;;;;;37.67;22.08;;;;;;;8.88;75.43;91837.66;4991037;28;20120;-91
2021/04/27 12:16:09;;;;;;;38.72;22.55;;;;;;;8.31;77.11;91827.44;5024352;28;20061;-90
2021/04/27 12:19:06;;;;;;;39.47;24.38;;;;;;;8.58;77.97;91865.88;5019847;28;20042;-89
2021/04/27 12:22:26;;;;;;;44.40;27.33;;;;;;;8.68;79.41;91863.06;5011739;28;20129;-90
2021/04/27 12:29:17;;;;;;;;;;;;;;;;;;;;;
2021/04/27 12:32:46;;;;;;;;;;;;;;;;;;;;;
2021/04/27 12:36:38;;;;;;;;;;;;;;;;;;;;;
2021/04/27 12:42:52;;;;;;;42.67;25.45;;;;;;;8.92;75.97;91867.34;5017602;28;20045;-91
2021/04/27 12:46:06;;;;;;;41.60;23.95;;;;;;;8.90;76.79;91865.00;5003591;28;20475;-91
2021/04/27 12:48:58;;;;;;;;;;;;;;;;;;;;;
2021/04/27 12:52:03;;;;;;;44.42;25.40;;;;;;;8.73;76.07;91841.31;5014158;28;20117;-92
2021/04/27 12:56:08;;;;;;;44.50;24.98;;;;;;;8.41;76.70;91810.88;4990207;28;20506;-91
2021/04/27 12:59:26;;;;;;;37.85;23.88;;;;;;;8.29;77.91;91813.94;5017344;28;20046;-93
2021/04/27 13:02:16;;;;;;;39.83;23.80;;;;;;;8.64;77.14;91858.72;5034960;28;20045;-81
2021/04/27 13:05:11;;;;;;;;;;;;;;;;;;;;;
2021/04/27 13:08:38;;;;;;;;;;;;;;;;;;;;;
2021/04/27 13:11:51;;;;;;;44.03;26.17;;;;;;;7.40;80.23;91804.38;5033714;28;20507;-89
2021/04/27 13:15:09;;;;;;;;;;;;;;;;;;;;;
2021/04/27 13:18:37;;;;;;;42.42;24.15;;;;;;;7.50;81.08;91817.28;5021702;28;20049;-90
2021/04/27 13:21:45;;;;;;;;;;;;;;;;;;;;;
2021/04/27 13:24:27;;;;;;;44.97;26.17;;;;;;;7.43;81.37;91798.59;5036422;28;20049;-89
2021/04/27 13:27:30;;;;;;;49.20;27.13;;;;;;;7.15;82.06;91788.06;5014424;28;20400;-90
2021/04/27 13:31:07;;;;;;;49.20;26.27;;;;;;;7.75;81.89;91847.38;5021038;28;20038;-93
2021/04/27 13:33:55;;;;;;;47.63;25.60;;;;;;;7.41;81.68;91795.53;5034788;28;20048;-91
2021/04/27 13:37:09;;;;;;;;;;;;;;;;;;;;;
2021/04/27 13:40:41;;;;;;;;;;;;;;;;;;;;;
2021/04/27 13:47:21;;;;;;;43.95;25.98;;;;;;;7.72;80.54;91804.44;5000004;28;20125;-90
2021/04/27 13:50:23;;;;;;;41.17;24.92;;;;;;;8.03;79.69;91822.16;5022626;28;20186;-91
2021/04/27 13:53:38;;;;;;;43.22;26.05;;;;;;;7.57;80.80;91798.69;5017856;28;20052;-91
2021/04/27 13:56:50;;;;;;;39.40;23.58;;;;;;;7.90;80.42;91849.75;5017684;28;20049;-91
2021/04/27 14:03:47;;;;;;;36.70;22.85;;;;;;;8.15;78.56;91824.34;5020657;28;20033;-90
2021/04/27 14:10:37;;;;;;;;;;;;;;;;;;;;;
2021/04/27 14:13:42;;;;;;;39.80;23.67;;;;;;;8.55;76.57;91838.50;5018783;28;20063;-90
2021/04/27 14:17:05;;;;;;;;;;;;;;;;;;;;;
2021/04/27 14:20:23;;;;;;;;;;;;;;;;;;;;;
2021/04/27 14:23:18;;;;;;;37.88;22.20;;;;;;;8.59;75.61;91783.91;5002555;28;20562;-91
2021/04/27 14:26:01;;;;;;;37.00;23.27;;;;;;;8.86;74.88;91806.63;4998042;28;20447;-93
2021/04/27 14:31:48;;;;;;;42.05;23.35;;;;;;;8.55;75.67;91801.22;5010799;28;20058;-90
2021/04/27 14:35:03;;;;;;;;;;;;;;;;;;;;;
2021/04/27 14:38:29;;;;;;;37.10;22.45;;;;;;;8.74;74.37;91793.28;5020812;28;20132;-91
2021/04/27 14:41:16;;;;;;;;;;;;;;;;;;;;;
2021/04/27 14:44:42;;;;;;;;;;;;;;;;;;;;;
2021/04/27 14:54:23;;;;;;;42.42;23.20;;;;;;;9.00;74.60;91795.38;5009973;28;20121;-91
2021/04/27 14:57:44;;;;;;;;;;;;;;;;;;;;;
2021/04/27 15:04:31;;;;;;;;;;;;;;;;;;;;;
2021/04/27 15:07:45;;;;;;;;;;;;;;;;;;;;;
2021/04/27 15:14:02;;;;;;;;;;;;;;;;;;;;;
2021/04/27 15:18:03;;;;;;;32.42;21.27;;;;;;;9.57;73.31;91806.19;4989727;28;20143;-91
2021/04/27 15:21:01;;;;;;;32.15;22.00;;;;;;;9.34;73.67;91785.28;5008593;28;20473;-91
2021/04/27 15:24:26;;;;;;;37.20;23.27;;;;;;;9.17;75.31;91803.38;5009014;28;20598;-90
2021/04/27 15:31:17;;;;;;;40.78;23.85;;;;;;;8.86;76.26;91779.75;4952169;28;20063;-91
2021/04/27 15:34:06;;;;;;;40.42;23.60;;;;;;;8.49;77.56;91786.75;4993416;28;20494;-92
2021/04/27 15:47:36;;;;;;;;;;;;;;;;;;;;;
2021/04/27 15:50:58;;;;;;;;;;;;;;;;;;;;;
2021/04/27 15:53:47;;;;;;;;;;;;;;;;;;;;;
2021/04/27 15:57:51;;;;;;;;;;;;;;;;;;;;;
2021/04/27 16:07:49;;;;;;;;;;;;;;;;;;;;;
2021/04/27 16:11:13;;;;;;;;;;;;;;;;;;;;;
2021/04/27 16:14:20;;;;;;;39.85;21.33;;;;;;;9.25;74.25;91822.81;5057431;28;20127;-91
2021/04/27 16:18:09;;;;;;;;;;;;;;;;;;;;;
2021/04/27 16:21:06;;;;;;;72.28;43.70;;;;;;;9.14;74.97;91803.97;5014109;28;20048;-91
2021/04/27 16:24:00;;;;;;;37.35;22.48;;;;;;;9.44;74.30;91809.63;4968515;28;20047;-92
2021/04/27 16:26:45;;;;;;;39.72;23.20;;;;;;;8.91;75.15;91745.72;4977179;28;20550;-90
2021/04/27 16:32:56;;;;;;;35.55;21.40;;;;;;;8.84;74.17;91761.00;4999707;28;20049;-90
2021/04/27 16:36:00;;;;;;;35.60;21.52;;;;;;;9.00;75.44;91811.06;4980625;28;20499;-90
2021/04/27 16:39:07;;;;;;;34.42;21.42;;;;;;;8.94;74.71;91803.34;5002598;28;20064;-90
2021/04/27 16:42:02;;;;;;;33.15;20.02;;;;;;;8.69;75.22;91759.47;4974147;28;20077;-90
2021/04/27 16:45:23;;;;;;;36.27;21.70;;;;;;;8.75;74.03;91756.44;5002243;28;20400;-90
2021/04/27 16:48:36;;;;;;;30.42;20.58;;;;;;;8.89;73.94;91772.13;4899814;29;20060;-90
2021/04/27 16:52:01;;;;;;;36.33;20.90;;;;;;;9.20;74.55;91804.63;4985388;28;20518;-91
2021/04/27 16:55:02;;;;;;;30.27;19.27;;;;;;;9.27;74.14;91808.38;4994183;28;20076;-91
2021/04/27 16:58:18;;;;;;;29.55;19.27;;;;;;;8.87;73.44;91763.81;4996833;28;20081;-92
2021/04/27 17:01:29;;;;;;;;;;;;;;;;;;;;;
2021/04/27 17:13:38;;;;;;;29.48;18.85;;;;;;;8.80;75.88;91807.78;4893076;29;20041;-91
2021/04/27 17:23:23;;;;;;;;;;;;;;;;;;;;;
2021/04/27 17:29:53;;;;;;;48.35;27.95;;;;;;;7.98;78.70;91767.53;4993560;28;20056;-93
2021/04/27 17:33:03;;;;;;;;;;;;;;;;;;;;;
2021/04/27 17:35:52;;;;;;;38.70;23.17;;;;;;;8.07;78.22;91791.09;5001529;28;20480;-92
2021/04/27 17:39:08;;;;;;;37.33;21.67;;;;;;;8.07;78.36;91791.84;4968757;28;20037;-93
2021/04/27 17:43:12;;;;;;;;;;;;;;;;;;;;;
2021/04/27 17:53:44;;;;;;;35.17;18.55;;;;;;;8.19;77.06;91778.34;4910365;29;20561;-91
2021/04/27 18:00:54;;;;;;;;;;;;;;;8.52;77.32;91827.88;4896966;29;20149;-90
2021/04/27 18:07:07;;;;;;;32.97;18.52;;;;;;;8.24;77.51;91785.31;4884414;29;20041;-91
2021/04/27 18:10:24;;;;;;;29.00;17.73;;;;;;;8.33;77.03;91799.22;4867731;29;20501;-92
2021/04/27 18:14:09;;;;;;;;;;;;;;;;;;;;;
2021/04/27 18:17:29;;;;;;;25.98;17.25;;;;;;;8.07;77.59;91798.91;5011912;28;20052;-92
2021/04/27 18:24:43;;;;;;;;;;;;;;;;;;;;;
2021/04/27 18:27:57;;;;;;;;;;;;;;;;;;;;;
2021/04/27 18:31:07;;;;;;;30.02;18.35;;;;;;;8.08;76.90;91803.84;5036647;28;20137;-90
2021/04/27 18:34:35;;;;;;;;;;;;;;;;;;;;;
2021/04/27 18:44:43;;;;;;;29.70;17.83;;;;;;;8.12;77.90;91817.84;4982815;28;20430;-90
2021/04/27 18:48:02;;;;;;;28.80;18.55;;;;;;;8.16;78.17;91822.50;5003081;28;20597;-92
2021/04/27 18:51:43;;;;;;;;;;;;;;;;;;;;;
2021/04/27 18:55:38;;;;;;;;;;;;;;;;;;;;;
2021/04/27 18:59:09;;;;;;;28.60;18.20;;;;;;;8.09;77.73;91821.03;4972405;28;20049;-91
2021/04/27 19:05:26;;;;;;;28.00;18.10;;;;;;;8.26;77.43;91861.41;5028102;28;20049;-90
2021/04/27 19:08:58;;;;;;;27.83;18.45;;;;;;;8.18;77.56;91855.03;5040230;28;20041;-89
2021/04/27 19:12:06;;;;;;;30.38;19.48;;;;;;;7.91;77.72;91834.88;5051747;28;20040;-92
2021/04/27 19:18:28;;;;;;;29.38;19.05;;;;;;;8.17;77.89;91882.16;5019809;28;20048;-89
2021/04/27 19:21:54;;;;;;;;;;;;;;;;;;;;;
2021/04/27 19:27:44;;;;;;;;;;;;;;;;;;;;;
2021/04/27 19:30:27;;;;;;;70.03;38.55;;;;;;;7.82;78.30;91829.53;5008316;28;20091;-89
2021/04/27 19:33:39;;;;;;;37.92;24.45;;;;;;;7.87;78.42;91833.91;5023264;28;20540;-90
2021/04/27 19:36:23;;;;;;;35.22;24.25;;;;;;;7.98;78.52;91853.53;5020473;28;20060;-90
2021/04/27 19:39:09;;;;;;;;;;;;;;;;;;;;;
2021/04/27 19:42:29;;;;;;;84.40;51.60;;;;;;;7.91;78.61;91869.53;5039310;28;20049;-91
2021/04/27 19:48:49;;;;;;;;;;;;;;;;;;;;;
2021/04/27 19:51:44;;;;;;;;;;;;;;;;;;;;;
2021/04/27 19:54:43;;;;;;;45.85;24.60;;;;;;;7.68;79.04;91850.34;5033936;28;20101;-95
2021/04/27 19:57:59;;;;;;;37.25;22.13;;;;;;;7.64;79.31;91840.75;5039119;28;20073;-95
2021/04/27 20:00:59;;;;;;;36.80;23.55;;;;;;;7.65;79.58;91843.06;5031493;28;20073;-95
2021/04/27 20:03:58;;;;;;;;;;;;;;;;;;;;;
2021/04/27 20:07:04;;;;;;;;;;;;;;;;;;;;;
2021/04/27 20:10:23;;;;;;;;;;;;;;;;;;;;;
2021/04/27 20:13:04;;;;;;;37.47;22.85;;;;;;;7.73;79.32;91857.31;5056181;28;20038;-92
2021/04/27 20:16:17;;;;;;;37.25;23.80;;;;;;;7.60;79.69;91843.16;5016228;28;20069;-91
2021/04/27 20:19:02;;;;;;;39.80;23.67;;;;;;;7.99;79.45;91907.19;5058235;28;20036;-93
2021/04/27 20:22:10;;;;;;;;;;;;;;;;;;;;;
2021/04/27 20:25:29;;;;;;;;;;;;;;;;;;;;;
2021/04/27 20:32:46;;;;;;;42.53;24.85;;;;;;;7.76;79.84;91876.81;5056646;28;20041;-92
2021/04/27 20:35:19;;;;;;;39.70;25.50;;;;;;;7.63;80.17;91868.66;5020542;28;20045;-92
2021/04/27 20:38:28;;;;;;;38.60;25.17;;;;;;;7.62;80.67;91867.09;5038902;28;20071;-92
2021/04/27 20:41:43;;;;;;;41.13;25.15;;;;;;;7.61;80.36;91862.94;5016622;28;20048;-91
2021/04/27 20:44:57;;;;;;;;;;;;;;;;;;;;;
2021/04/27 20:48:03;;;;;;;;;;;;;;;;;;;;;
2021/04/27 20:51:22;;;;;;;40.78;26.67;;;;;;;7.70;81.27;91902.94;5034137;28;20052;-92
2021/04/27 20:54:42;;;;;;;;;;;;;;;;;;;;;
2021/04/27 20:57:48;;;;;;;49.17;28.20;;;;;;;7.49;80.79;91880.81;5042023;28;20049;-92
2021/04/27 21:00:27;;;;;;;45.22;27.65;;;;;;;7.43;81.14;91876.72;5039203;28;20045;-91
2021/04/27 21:03:10;;;;;;;45.88;29.45;;;;;;;7.54;80.76;91883.34;5038897;28;20060;-91
2021/04/27 21:06:02;;;;;;;39.47;26.33;;;;;;;7.48;80.58;91874.06;5012458;28;20037;-91
2021/04/27 21:08:49;;;;;;;42.55;27.27;;;;;;;7.55;80.94;91894.56;5038584;28;20045;-91
2021/04/27 21:11:51;;;;;;;;;;;;;;;;;;;;;
2021/04/27 21:14:34;;;;;;;42.50;27.13;;;;;;;7.48;80.92;91885.25;5039951;28;20065;-91
2021/04/27 21:17:28;;;;;;;47.13;27.98;;;;;;;7.60;80.97;91907.50;5010190;28;20056;-92
2021/04/27 21:20:33;;;;;;;;;;;;;;;;;;;;;
2021/04/27 21:23:31;;;;;;;47.58;28.70;;;;;;;7.84;81.06;91943.91;5053322;28;20049;-92
2021/04/27 21:29:47;;;;;;;45.35;27.92;;;;;;;7.76;81.11;91927.06;5037425;28;20045;-92
2021/04/27 21:32:48;;;;;;;43.78;26.85;;;;;;;7.51;80.98;91892.50;5039269;28;20037;-91
2021/04/27 21:36:09;;;;;;;;;;;;;;;;;;;;;
2021/04/27 21:39:48;;;;;;;47.80;27.65;;;;;;;7.83;81.69;91953.53;5054016;28;20114;-92
2021/04/27 21:43:03;;;;;;;47.50;29.65;;;;;;;7.42;82.42;91901.22;5043457;28;20037;-92
2021/04/27 21:45:50;;;;;;;;;;;;;;;;;;;;;
2021/04/27 21:48:57;;;;;;;47.97;29.23;;;;;;;7.67;82.23;91939.94;5040309;28;20487;-92
2021/04/27 21:51:47;;;;;;;48.58;29.40;;;;;;;7.56;82.02;91922.91;5008916;28;20132;-92
2021/04/27 21:54:49;;;;;;;;;;;;;;;;;;;;;
2021/04/27 21:58:08;;;;;;;;;;;;;;;;;;;;;
2021/04/27 22:01:11;;;;;;;46.42;29.83;;;;;;;7.46;81.77;91908.19;5040340;28;20047;-92
2021/04/27 22:04:17;;;;;;;51.13;29.88;;;;;;;7.56;82.12;91938.53;5034939;28;20052;-91
2021/04/27 22:07:23;;;;;;;;;;;;;;;;;;;;;
2021/04/27 22:10:11;;;;;;;;;;;;;;;7.73;82.18;91956.31;5034255;28;20049;-92
2021/04/27 22:13:12;;;;;;;48.45;29.38;;;;;;;7.65;82.29;91962.13;5051413;28;19916;-92
2021/04/27 22:16:03;;;;;;;47.80;29.65;;;;;;;7.23;83.06;91899.38;5004694;28;20503;-91
2021/04/27 22:19:00;;;;;;;;;;;;;;;;;;;;;
2021/04/27 22:21:39;;;;;;;58.13;34.88;;;;;;;7.51;83.95;91946.41;5055166;28;20055;-92
2021/04/27 22:24:59;;;;;;;64.80;37.22;;;;;;;7.49;84.08;91953.72;5023181;28;20048;-93
2021/04/27 22:27:45;;;;;;;;;;;;;;;;;;;;;
2021/04/27 22:30:46;;;;;;;62.97;37.53;;;;;;;7.20;84.79;91910.31;5039470;28;20044;-91
2021/04/27 22:34:02;;;;;;;59.95;36.10;;;;;;;7.27;85.04;91920.41;5025060;28;20056;-92
2021/04/27 22:36:57;;;;;;;62.88;36.60;;;;;;;7.54;85.21;91961.47;5037389;28;20083;-91
2021/04/27 22:40:09;;;;;;;64.25;39.95;;;;;;;7.21;85.25;91916.34;5026321;28;20041;-91
2021/04/27 22:43:20;;;;;;;66.40;39.10;;;;;;;7.18;85.37;91917.66;5021042;28;20049;-92
2021/04/27 22:45:57;;;;;;;73.43;39.03;;;;;;;7.22;85.63;91908.22;5037336;28;20100;-92
2021/04/27 22:48:55;;;;;;;69.00;40.20;;;;;;;7.11;86.08;91903.44;4994755;28;20130;-92
2021/04/27 22:51:44;;;;;;;;;;;;;;;;;;;;;
2021/04/27 22:54:25;;;;;;;71.22;39.75;;;;;;;7.25;86.08;91932.91;5038223;28;20502;-92
2021/04/27 23:00:43;;;;;;;73.93;41.47;;;;;;;7.11;87.18;91919.81;5022137;28;20044;-90
2021/04/27 23:03:56;;;;;;;74.22;42.95;;;;;;;7.18;87.40;91941.09;5034059;28;20419;-92
2021/04/27 23:07:01;;;;;;;68.28;42.17;;;;;;;7.27;87.50;91946.44;5031914;28;20048;-91
2021/04/27 23:09:53;;;;;;;68.63;41.15;;;;;;;7.07;87.04;91913.63;5027221;28;20063;-91
2021/04/27 23:12:34;;;;;;;;;;;;;;;;;;;;;
2021/04/27 23:15:18;;;;;;;66.25;41.05;;;;;;;7.33;87.03;91955.75;5044999;28;20056;-92
2021/04/27 23:18:54;;;;;;;76.88;43.67;;;;;;;7.33;87.14;91944.56;5048953;28;20422;-91
2021/04/27 23:25:07;;;;;;;76.63;42.22;;;;;;;6.97;86.90;91895.53;5054843;28;20053;-92
2021/04/27 23:28:13;;;;;;;74.50;43.67;;;;;;;6.97;87.02;91890.31;5071957;28;20043;-92
2021/04/27 23:34:37;;;;;;;69.88;40.22;;;;;;;7.04;86.65;91888.16;5057539;28;20036;-92
2021/04/27 23:37:41;;;;;;;;;;;;;;;;;;;;;
2021/04/27 23:40:41;;;;;;;;;;;;;;;;;;;;;
2021/04/27 23:43:39;;;;;;;;;;;;;;;;;;;;;
2021/04/27 23:46:35;;;;;;;71.07;42.55;;;;;;;7.03;87.13;91884.78;5023711;28;20067;-93
2021/04/27 23:49:44;;;;;;;69.28;41.30;;;;;;;7.07;87.09;91882.41;5026720;28;20398;-92